You are not logged in, Click here to log in
福岡空港/板付機場 FUK / RJFF 日本福岡縣福岡市博多區
ICAO: RJFF Country: 日本福岡縣福岡市博多區
Latitude: 33.5903 Longitude: 130.447
Total Arrivals: 157 Total Departures: 142
Latest Arrival: BR202021 (RCTP-RJFF)Yu. dachi Latest Departure: BR105 (RJFF-RCTP)CHU. CHUHAO
Scenery:
METAR : RJFF 071230Z 14010KT 120V180 9999 FEW030 BKN120 BKN/// 28/24 Q1008 NOSIG

福岡空港/板付機場 FUK